createdAt,value
2018-12-12T00:00:00.521Z,1008.65
2018-12-12T00:01:00.536Z,1008.71
2018-12-12T00:02:00.502Z,1008.67
2018-12-12T00:03:00.491Z,1008.70
2018-12-12T00:04:00.475Z,1008.67
2018-12-12T00:05:00.479Z,1008.70
2018-12-12T00:06:00.457Z,1008.73
2018-12-12T00:07:00.445Z,1008.71
2018-12-12T00:08:00.457Z,1008.73
2018-12-12T00:09:00.420Z,1008.72
2018-12-12T00:10:00.409Z,1008.68
2018-12-12T00:11:00.402Z,1008.69
2018-12-12T00:12:00.392Z,1008.64
2018-12-12T00:13:00.384Z,1008.66
2018-12-12T00:14:00.396Z,1008.67
2018-12-12T00:15:00.372Z,1008.64
2018-12-12T00:16:00.347Z,1008.65
2018-12-12T00:17:00.334Z,1008.63
2018-12-12T00:18:00.322Z,1008.63
2018-12-12T00:19:00.314Z,1008.60
2018-12-12T00:20:00.329Z,1008.55
2018-12-12T00:21:00.317Z,1008.55
2018-12-12T00:22:00.284Z,1008.51
2018-12-12T00:23:00.274Z,1008.51
2018-12-12T00:24:00.265Z,1008.53
2018-12-12T00:25:00.255Z,1008.49
2018-12-12T00:26:00.263Z,1008.49
2018-12-12T00:27:00.231Z,1008.48
2018-12-12T00:28:00.221Z,1008.44
2018-12-12T00:29:00.206Z,1008.52
2018-12-12T00:30:00.195Z,1008.53
2018-12-12T00:31:00.223Z,1008.57
2018-12-12T00:32:00.182Z,1008.60
2018-12-12T00:33:00.172Z,1008.59
2018-12-12T00:34:00.163Z,1008.60
2018-12-12T00:35:00.149Z,1008.62
2018-12-12T00:36:00.136Z,1008.66
2018-12-12T00:37:00.139Z,1008.66
2018-12-12T00:38:00.123Z,1008.67
2018-12-12T00:39:00.144Z,1008.65
2018-12-12T00:40:00.092Z,1008.65
2018-12-12T00:41:00.081Z,1008.62
2018-12-12T00:42:00.096Z,1008.63
2018-12-12T00:43:00.064Z,1008.65
2018-12-12T00:44:00.056Z,1008.66
2018-12-12T00:45:00.043Z,1008.68
2018-12-12T00:46:00.033Z,1008.70
2018-12-12T00:47:00.040Z,1008.69
2018-12-12T00:48:00.033Z,1008.67
2018-12-12T00:48:59.996Z,1008.68
2018-12-12T00:49:59.994Z,1008.69
2018-12-12T00:50:59.975Z,1008.75
2018-12-12T00:51:59.968Z,1008.67
2018-12-12T00:52:59.982Z,1008.68
2018-12-12T00:53:59.960Z,1008.67
2018-12-12T00:54:59.932Z,1008.63
2018-12-12T00:55:59.925Z,1008.68
2018-12-12T00:56:59.938Z,1008.67
2018-12-12T00:57:59.951Z,1008.60
2018-12-12T00:58:59.892Z,1008.62
2018-12-12T00:59:59.878Z,1008.60
2018-12-12T01:00:59.866Z,1008.59
2018-12-12T01:01:59.875Z,1008.58
2018-12-12T01:02:59.847Z,1008.56
2018-12-12T01:03:59.839Z,1008.53
2018-12-12T01:04:59.829Z,1008.56
2018-12-12T01:05:59.819Z,1008.57
2018-12-12T01:06:59.847Z,1008.54
2018-12-12T01:07:59.794Z,1008.57
2018-12-12T01:08:59.780Z,1008.56
2018-12-12T01:09:59.777Z,1008.54
2018-12-12T01:10:59.763Z,1008.59
2018-12-12T01:11:59.772Z,1008.62
2018-12-12T01:12:59.738Z,1008.60
2018-12-12T01:13:59.727Z,1008.61
2018-12-12T01:14:59.722Z,1008.60
2018-12-12T01:15:59.741Z,1008.61
2018-12-12T01:16:59.728Z,1008.66
2018-12-12T01:17:59.693Z,1008.62
2018-12-12T01:18:59.678Z,1008.65
2018-12-12T01:19:59.665Z,1008.66
2018-12-12T01:20:59.671Z,1008.72
2018-12-12T01:21:59.660Z,1008.70
2018-12-12T01:22:59.634Z,1008.72
2018-12-12T01:23:59.627Z,1008.68
2018-12-12T01:24:59.619Z,1008.69
2018-12-12T01:25:59.600Z,1008.69
2018-12-12T01:26:59.609Z,1008.75
2018-12-12T01:27:59.584Z,1008.78
2018-12-12T01:28:59.574Z,1008.79
2018-12-12T01:29:59.563Z,1008.76
2018-12-12T01:30:59.556Z,1008.77
2018-12-12T01:31:59.556Z,1008.79
2018-12-12T01:32:59.527Z,1008.83
2018-12-12T01:33:59.517Z,1008.86
2018-12-12T01:34:59.515Z,1008.80
2018-12-12T01:35:59.519Z,1008.84
2018-12-12T01:36:59.511Z,1008.83
2018-12-12T01:37:59.496Z,1008.82
2018-12-12T01:38:59.472Z,1008.83
2018-12-12T01:39:59.454Z,1008.82
2018-12-12T01:40:59.442Z,1008.81
2018-12-12T01:41:59.437Z,1008.77
2018-12-12T01:42:59.445Z,1008.76
2018-12-12T01:43:59.413Z,1008.73
2018-12-12T01:44:59.421Z,1008.74
2018-12-12T01:45:59.406Z,1008.76
2018-12-12T01:46:59.383Z,1008.70
2018-12-12T01:47:59.374Z,1008.76
2018-12-12T01:48:59.368Z,1008.76
2018-12-12T01:49:59.353Z,1008.72
2018-12-12T01:50:59.364Z,1008.71
2018-12-12T01:51:59.336Z,1008.73
2018-12-12T01:53:00.216Z,1008.72
2018-12-12T01:53:59.330Z,1008.73
2018-12-12T01:54:59.304Z,1008.74
2018-12-12T01:55:59.289Z,1008.77
2018-12-12T01:56:59.281Z,1008.79
2018-12-12T01:57:59.262Z,1008.80
2018-12-12T01:58:59.256Z,1008.86
2018-12-12T01:59:59.280Z,1008.87
2018-12-12T02:00:59.256Z,1008.91
2018-12-12T02:01:59.229Z,1008.95
2018-12-12T02:02:59.216Z,1008.93
2018-12-12T02:03:59.201Z,1008.91
2018-12-12T02:04:59.193Z,1008.96
2018-12-12T02:05:59.201Z,1008.90
2018-12-12T02:06:59.170Z,1008.98
2018-12-12T02:07:59.162Z,1008.98
2018-12-12T02:08:59.156Z,1009.01
2018-12-12T02:09:59.148Z,1008.97
2018-12-12T02:10:59.175Z,1008.99
2018-12-12T02:11:59.130Z,1009.02
2018-12-12T02:12:59.106Z,1009.03
2018-12-12T02:13:59.102Z,1009.02
2018-12-12T02:14:59.092Z,1009.04
2018-12-12T02:15:59.077Z,1009.07
2018-12-12T02:16:59.087Z,1009.06
2018-12-12T02:17:59.055Z,1009.05
2018-12-12T02:18:59.044Z,1009.07
2018-12-12T02:19:59.035Z,1009.08
2018-12-12T02:20:59.028Z,1009.09
2018-12-12T02:21:59.048Z,1009.07
2018-12-12T02:22:59.022Z,1009.07
2018-12-12T02:23:58.991Z,1009.07
2018-12-12T02:24:58.981Z,1009.03
2018-12-12T02:25:58.967Z,1009.11
2018-12-12T02:26:58.978Z,1009.05
2018-12-12T02:27:58.969Z,1009.08
2018-12-12T02:28:58.968Z,1009.05
2018-12-12T02:29:58.927Z,1009.11
2018-12-12T02:30:58.987Z,1009.12
2018-12-12T02:31:58.913Z,1009.19
2018-12-12T02:32:58.910Z,1009.24
2018-12-12T02:33:58.890Z,1009.20
2018-12-12T02:34:58.895Z,1009.20
2018-12-12T02:35:58.874Z,1009.22
2018-12-12T02:36:58.852Z,1009.21
2018-12-12T02:37:58.844Z,1009.20
2018-12-12T02:38:58.836Z,1009.20
2018-12-12T02:39:58.845Z,1009.21
2018-12-12T02:40:58.821Z,1009.19
2018-12-12T02:41:58.806Z,1009.17
2018-12-12T02:42:58.795Z,1009.13
2018-12-12T02:43:58.780Z,1009.14
2018-12-12T02:44:58.795Z,1009.12
2018-12-12T02:45:58.783Z,1009.10
2018-12-12T02:46:58.751Z,1009.09
2018-12-12T02:47:58.739Z,1009.08
2018-12-12T02:48:58.725Z,1009.05
2018-12-12T02:49:58.742Z,1009.01
2018-12-12T02:50:58.726Z,1009.04
2018-12-12T02:51:58.703Z,1008.99
2018-12-12T02:52:58.691Z,1009.02
2018-12-12T02:53:58.682Z,1009.01
2018-12-12T02:54:58.687Z,1009.04
2018-12-12T02:55:58.652Z,1009.02
2018-12-12T02:56:58.657Z,1009.02
2018-12-12T02:57:58.631Z,1008.98
2018-12-12T02:58:58.622Z,1009.03
2018-12-12T02:59:58.614Z,1009.02
2018-12-12T03:00:58.627Z,1008.99
2018-12-12T03:01:58.590Z,1009.06
2018-12-12T03:02:58.581Z,1009.07
2018-12-12T03:03:58.573Z,1009.08
2018-12-12T03:04:58.561Z,1009.11
2018-12-12T03:05:58.575Z,1009.05
2018-12-12T03:06:58.558Z,1009.06
2018-12-12T03:07:58.525Z,1009.04
2018-12-12T03:08:58.515Z,1009.04
2018-12-12T03:09:58.505Z,1009.01
2018-12-12T03:10:58.495Z,1009.01
2018-12-12T03:11:58.527Z,1009.04
2018-12-12T03:12:58.485Z,1009.01
2018-12-12T03:13:58.467Z,1009.02
2018-12-12T03:14:58.471Z,1009.04
2018-12-12T03:15:58.442Z,1009.06
2018-12-12T03:16:58.451Z,1009.07
2018-12-12T03:17:58.448Z,1009.06
2018-12-12T03:18:58.434Z,1009.09
2018-12-12T03:19:58.425Z,1009.10
2018-12-12T03:20:58.398Z,1009.11
2018-12-12T03:21:58.395Z,1009.07
2018-12-12T03:22:58.368Z,1009.12
2018-12-12T03:23:58.358Z,1009.12
2018-12-12T03:24:58.351Z,1009.15
2018-12-12T03:25:58.339Z,1009.15
2018-12-12T03:26:58.350Z,1009.18
2018-12-12T03:27:58.328Z,1009.19
2018-12-12T03:28:58.307Z,1009.18
2018-12-12T03:29:58.293Z,1009.22
2018-12-12T03:30:58.283Z,1009.21
2018-12-12T03:31:58.299Z,1009.16
2018-12-12T03:32:58.267Z,1009.17
2018-12-12T03:33:58.254Z,1009.19
2018-12-12T03:34:58.239Z,1009.20
2018-12-12T03:35:58.236Z,1009.16
2018-12-12T03:36:58.241Z,1009.17
2018-12-12T03:37:58.211Z,1009.17
2018-12-12T03:38:58.205Z,1009.16
2018-12-12T03:39:58.209Z,1009.16
2018-12-12T03:40:58.196Z,1009.19
2018-12-12T03:41:58.193Z,1009.19
2018-12-12T03:42:58.156Z,1009.25
2018-12-12T03:43:58.151Z,1009.26
2018-12-12T03:44:58.141Z,1009.31
2018-12-12T03:45:58.129Z,1009.28
2018-12-12T03:46:58.143Z,1009.28
2018-12-12T03:47:58.101Z,1009.28
2018-12-12T03:48:58.098Z,1009.20
2018-12-12T03:49:58.087Z,1009.18
2018-12-12T03:50:58.079Z,1009.19
2018-12-12T03:51:58.060Z,1009.13
2018-12-12T03:52:58.074Z,1009.21
2018-12-12T03:53:58.040Z,1009.19
2018-12-12T03:54:58.029Z,1009.17
2018-12-12T03:55:58.027Z,1009.19
2018-12-12T03:56:58.012Z,1009.21
2018-12-12T03:57:58.006Z,1009.20
2018-12-12T03:58:58.009Z,1009.18
2018-12-12T03:59:57.986Z,1009.21
2018-12-12T04:00:57.985Z,1009.15
2018-12-12T04:01:57.977Z,1009.17
2018-12-12T04:02:57.944Z,1009.23
2018-12-12T04:03:57.994Z,1009.18
2018-12-12T04:04:57.926Z,1009.21
2018-12-12T04:05:57.932Z,1009.25
2018-12-12T04:06:57.919Z,1009.24
2018-12-12T04:07:57.906Z,1009.25
2018-12-12T04:08:57.887Z,1009.30
2018-12-12T04:09:57.875Z,1009.26
2018-12-12T04:10:57.900Z,1009.28
2018-12-12T04:11:57.872Z,1009.26
2018-12-12T04:12:57.846Z,1009.23
2018-12-12T04:13:57.836Z,1009.22
2018-12-12T04:14:57.817Z,1009.23
2018-12-12T04:15:57.820Z,1009.21
2018-12-12T04:16:57.818Z,1009.22
2018-12-12T04:17:57.789Z,1009.21
2018-12-12T04:18:57.787Z,1009.21
2018-12-12T04:19:57.764Z,1009.21
2018-12-12T04:20:57.760Z,1009.22
2018-12-12T04:21:57.765Z,1009.20
2018-12-12T04:22:57.741Z,1009.23
2018-12-12T04:23:57.724Z,1009.18
2018-12-12T04:24:57.717Z,1009.17
2018-12-12T04:25:57.704Z,1009.21
2018-12-12T04:26:57.713Z,1009.18
2018-12-12T04:27:57.730Z,1009.18
2018-12-12T04:28:57.672Z,1009.19
2018-12-12T04:29:57.671Z,1009.19
2018-12-12T04:30:57.692Z,1009.19
2018-12-12T04:31:57.669Z,1009.21
2018-12-12T04:32:57.641Z,1009.26
2018-12-12T04:33:57.631Z,1009.22
2018-12-12T04:34:57.687Z,1009.23
2018-12-12T04:35:57.610Z,1009.24
2018-12-12T04:36:57.612Z,1009.24
2018-12-12T04:37:57.603Z,1009.19
2018-12-12T04:38:57.576Z,1009.23
2018-12-12T04:39:57.563Z,1009.23
2018-12-12T04:40:57.546Z,1009.22
2018-12-12T04:41:58.745Z,1009.23
2018-12-12T04:42:57.535Z,1009.26
2018-12-12T04:43:57.549Z,1009.27
2018-12-12T04:44:57.505Z,1009.25
2018-12-12T04:45:57.492Z,1009.25
2018-12-12T04:46:57.495Z,1009.26
2018-12-12T04:47:57.476Z,1009.23
2018-12-12T04:48:57.459Z,1009.24
2018-12-12T04:49:57.453Z,1009.22
2018-12-12T04:50:57.449Z,1009.20
2018-12-12T04:51:57.458Z,1009.17
2018-12-12T04:52:57.415Z,1009.22
2018-12-12T04:53:57.415Z,1009.22
2018-12-12T04:54:57.399Z,1009.19
2018-12-12T04:55:57.380Z,1009.24
2018-12-12T04:56:57.380Z,1009.18
2018-12-12T04:57:57.387Z,1009.19
2018-12-12T04:58:57.348Z,1009.22
2018-12-12T04:59:57.678Z,1009.22
2018-12-12T05:00:57.332Z,1009.23
2018-12-12T05:01:57.330Z,1009.26
2018-12-12T05:02:57.314Z,1009.23
2018-12-12T05:03:57.316Z,1009.25
2018-12-12T05:04:57.288Z,1009.19
2018-12-12T05:05:57.277Z,1009.19
2018-12-12T05:06:57.282Z,1009.29
2018-12-12T05:07:57.275Z,1009.25
2018-12-12T05:08:57.248Z,1009.22
2018-12-12T05:09:57.249Z,1009.23
2018-12-12T05:10:57.222Z,1009.22
2018-12-12T05:11:57.240Z,1009.22
2018-12-12T05:12:57.206Z,1009.25
2018-12-12T05:13:57.204Z,1009.27
2018-12-12T05:14:57.204Z,1009.30
2018-12-12T05:15:57.176Z,1009.22
2018-12-12T05:16:57.185Z,1009.29
2018-12-12T05:17:57.149Z,1009.33
2018-12-12T05:18:57.699Z,1009.29
2018-12-12T05:19:57.132Z,1009.33
2018-12-12T05:20:57.119Z,1009.34
2018-12-12T05:21:57.111Z,1009.32
2018-12-12T05:22:57.119Z,1009.39
2018-12-12T05:23:57.113Z,1009.33
2018-12-12T05:24:57.074Z,1009.37
2018-12-12T05:25:57.075Z,1009.39
2018-12-12T05:26:57.062Z,1009.41
2018-12-12T05:27:57.061Z,1009.43
2018-12-12T05:28:57.035Z,1009.43
2018-12-12T05:29:57.022Z,1009.41
2018-12-12T05:30:57.008Z,1009.44
2018-12-12T05:31:57.041Z,1009.44
2018-12-12T05:32:57.010Z,1009.41
2018-12-12T05:33:56.981Z,1009.44
2018-12-12T05:34:56.975Z,1009.47
2018-12-12T05:35:56.956Z,1009.50
2018-12-12T05:36:56.968Z,1009.51
2018-12-12T05:37:56.945Z,1009.52
2018-12-12T05:38:56.951Z,1009.52
2018-12-12T05:39:56.920Z,1009.54
2018-12-12T05:40:56.931Z,1009.54
2018-12-12T05:41:56.926Z,1009.57
2018-12-12T05:42:56.881Z,1009.54
2018-12-12T05:43:57.705Z,1009.58
2018-12-12T05:44:56.900Z,1009.57
2018-12-12T05:45:56.875Z,1009.52
2018-12-12T05:46:56.847Z,1009.57
2018-12-12T05:47:56.829Z,1009.54
2018-12-12T05:48:56.831Z,1009.54
2018-12-12T05:49:56.843Z,1009.55
2018-12-12T05:50:56.804Z,1009.51
2018-12-12T05:51:56.829Z,1009.46
2018-12-12T05:52:56.779Z,1009.46
2018-12-12T05:53:56.768Z,1009.44
2018-12-12T05:54:56.777Z,1009.47
2018-12-12T05:56:02.323Z,1009.46
2018-12-12T05:56:57.755Z,1009.45
2018-12-12T05:57:56.738Z,1009.45
2018-12-12T05:58:56.735Z,1009.49
2018-12-12T05:59:56.701Z,1009.46
2018-12-12T06:00:56.692Z,1009.49
2018-12-12T06:01:56.700Z,1009.43
2018-12-12T06:02:56.670Z,1009.46
2018-12-12T06:03:56.688Z,1009.52
2018-12-12T06:04:56.652Z,1009.47
2018-12-12T06:05:56.641Z,1009.51
2018-12-12T06:06:56.650Z,1009.57
2018-12-12T06:07:56.618Z,1009.57
2018-12-12T06:08:56.612Z,1009.60
2018-12-12T06:09:56.600Z,1009.55
2018-12-12T06:10:56.582Z,1009.57
2018-12-12T06:11:56.601Z,1009.58
2018-12-12T06:12:57.931Z,1009.57
2018-12-12T06:13:56.553Z,1009.57
2018-12-12T06:14:56.540Z,1009.56
2018-12-12T06:15:56.559Z,1009.54
2018-12-12T06:16:56.546Z,1009.58
2018-12-12T06:17:56.592Z,1009.55
2018-12-12T06:18:56.504Z,1009.60
2018-12-12T06:19:56.567Z,1009.59
2018-12-12T06:20:56.476Z,1009.57
2018-12-12T06:21:56.502Z,1009.60
2018-12-12T06:22:56.456Z,1009.62
2018-12-12T06:23:56.471Z,1009.61
2018-12-12T06:24:56.449Z,1009.63
2018-12-12T06:25:56.432Z,1009.62
2018-12-12T06:26:56.445Z,1009.65
2018-12-12T06:27:56.401Z,1009.64
2018-12-12T06:28:56.393Z,1009.66
2018-12-12T06:29:56.402Z,1009.66
2018-12-12T06:30:56.376Z,1009.65
2018-12-12T06:31:56.360Z,1009.65
2018-12-12T06:32:56.372Z,1009.67
2018-12-12T06:33:56.341Z,1009.71
2018-12-12T06:34:56.327Z,1009.68
2018-12-12T06:35:56.332Z,1009.68
2018-12-12T06:36:56.362Z,1009.71
2018-12-12T06:37:56.299Z,1009.69
2018-12-12T06:38:56.291Z,1009.71
2018-12-12T06:39:56.281Z,1009.72
2018-12-12T06:40:56.267Z,1009.71
2018-12-12T06:41:56.257Z,1009.66
2018-12-12T06:42:56.277Z,1009.73
2018-12-12T06:43:56.240Z,1009.72
2018-12-12T06:44:56.226Z,1009.67
2018-12-12T06:45:56.242Z,1009.72
2018-12-12T06:46:56.223Z,1009.72
2018-12-12T06:47:56.194Z,1009.69
2018-12-12T06:48:56.183Z,1009.71
2018-12-12T06:49:56.176Z,1009.75
2018-12-12T06:50:56.163Z,1009.77
2018-12-12T06:51:56.171Z,1009.80
2018-12-12T06:52:56.142Z,1009.79
2018-12-12T06:53:56.144Z,1009.82
2018-12-12T06:54:56.152Z,1009.83
2018-12-12T06:55:56.265Z,1009.86
2018-12-12T06:56:56.114Z,1009.88
2018-12-12T06:57:56.086Z,1009.87
2018-12-12T06:58:56.077Z,1009.86
2018-12-12T06:59:56.059Z,1009.88
2018-12-12T07:00:56.061Z,1009.85
2018-12-12T07:01:56.073Z,1009.85
2018-12-12T07:02:56.049Z,1009.82
2018-12-12T07:03:56.018Z,1009.87
2018-12-12T07:04:56.010Z,1009.89
2018-12-12T07:05:55.998Z,1009.90
2018-12-12T07:06:56.036Z,1009.89
2018-12-12T07:07:55.985Z,1009.90
2018-12-12T07:08:55.973Z,1009.91
2018-12-12T07:09:55.960Z,1009.90
2018-12-12T07:10:55.949Z,1009.88
2018-12-12T07:11:55.960Z,1009.89
2018-12-12T07:12:55.943Z,1009.89
2018-12-12T07:13:55.912Z,1009.86
2018-12-12T07:14:55.898Z,1009.89
2018-12-12T07:15:55.897Z,1009.85
2018-12-12T07:16:55.906Z,1009.85
2018-12-12T07:17:55.875Z,1009.84
2018-12-12T07:18:55.866Z,1009.93
2018-12-12T07:19:55.936Z,1009.87
2018-12-12T07:20:55.839Z,1009.88
2018-12-12T07:21:55.838Z,1009.88
2018-12-12T07:22:55.848Z,1009.87
2018-12-12T07:23:55.818Z,1009.89
2018-12-12T07:24:55.798Z,1009.94
2018-12-12T07:25:55.786Z,1009.87
2018-12-12T07:26:55.789Z,1009.88
2018-12-12T07:27:55.768Z,1009.94
2018-12-12T07:28:55.756Z,1009.94
2018-12-12T07:29:55.746Z,1009.92
2018-12-12T07:30:55.750Z,1009.92
2018-12-12T07:31:55.736Z,1009.92
2018-12-12T07:32:55.710Z,1009.92
2018-12-12T07:34:00.983Z,1009.91
2018-12-12T07:34:56.714Z,1009.97
2018-12-12T07:35:59.473Z,1009.97
2018-12-12T07:36:55.677Z,1010.00
2018-12-12T07:37:55.656Z,1010.01
2018-12-12T07:38:55.644Z,1009.98
2018-12-12T07:39:56.155Z,1009.95
2018-12-12T07:40:55.636Z,1009.97
2018-12-12T07:41:55.636Z,1009.97
2018-12-12T07:42:55.606Z,1010.00
2018-12-12T07:43:55.595Z,1010.03
2018-12-12T07:44:55.596Z,1010.02
2018-12-12T07:45:55.594Z,1010.05
2018-12-12T07:46:55.576Z,1010.03
2018-12-12T07:48:01.278Z,1010.06
2018-12-12T07:48:56.542Z,1010.08
2018-12-12T07:49:55.525Z,1010.12
2018-12-12T07:50:55.527Z,1010.07
2018-12-12T07:51:55.568Z,1010.08
2018-12-12T07:52:55.511Z,1010.11
2018-12-12T07:53:55.490Z,1010.11
2018-12-12T07:54:55.478Z,1010.11
2018-12-12T07:55:55.466Z,1010.13
2018-12-12T07:56:55.473Z,1010.08
2018-12-12T07:57:55.441Z,1010.14
2018-12-12T07:58:55.441Z,1010.15
2018-12-12T07:59:55.428Z,1010.18
2018-12-12T08:00:55.417Z,1010.17
2018-12-12T08:01:55.427Z,1010.15
2018-12-12T08:02:55.422Z,1010.12
2018-12-12T08:03:55.381Z,1010.19
2018-12-12T08:04:55.373Z,1010.21
2018-12-12T08:05:55.389Z,1010.17
2018-12-12T08:06:56.315Z,1010.17
2018-12-12T08:07:55.361Z,1010.18
2018-12-12T08:08:55.324Z,1010.21
2018-12-12T08:09:55.315Z,1010.22
2018-12-12T08:10:55.306Z,1010.18
2018-12-12T08:11:55.321Z,1010.21
2018-12-12T08:12:55.305Z,1010.23
2018-12-12T08:13:55.294Z,1010.25
2018-12-12T08:14:55.269Z,1010.23
2018-12-12T08:15:55.302Z,1010.26
2018-12-12T08:16:55.271Z,1010.23
2018-12-12T08:17:55.231Z,1010.18
2018-12-12T08:18:55.223Z,1010.24
2018-12-12T08:19:55.254Z,1010.25
2018-12-12T08:20:55.205Z,1010.25
2018-12-12T08:21:55.189Z,1010.26
2018-12-12T08:22:55.200Z,1010.25
2018-12-12T08:23:55.189Z,1010.24
2018-12-12T08:24:55.171Z,1010.27
2018-12-12T08:25:55.164Z,1010.32
2018-12-12T08:26:55.169Z,1010.26
2018-12-12T08:27:55.133Z,1010.33
2018-12-12T08:28:55.114Z,1010.34
2018-12-12T08:29:55.105Z,1010.31
2018-12-12T08:30:55.096Z,1010.31
2018-12-12T08:31:55.108Z,1010.29
2018-12-12T08:32:55.086Z,1010.29
2018-12-12T08:33:55.075Z,1010.32
2018-12-12T08:34:55.062Z,1010.29
2018-12-12T08:35:55.043Z,1010.32
2018-12-12T08:36:55.047Z,1010.29
2018-12-12T08:37:55.028Z,1010.25
2018-12-12T08:38:55.016Z,1010.24
2018-12-12T08:39:55.011Z,1010.27
2018-12-12T08:40:54.989Z,1010.27
2018-12-12T08:41:55.002Z,1010.26
2018-12-12T08:42:54.969Z,1010.30
2018-12-12T08:43:54.960Z,1010.32
2018-12-12T08:44:54.953Z,1010.32
2018-12-12T08:45:54.957Z,1010.33
2018-12-12T08:46:54.930Z,1010.32
2018-12-12T08:47:54.941Z,1010.29
2018-12-12T08:48:54.906Z,1010.35
2018-12-12T08:49:54.894Z,1010.30
2018-12-12T08:50:54.886Z,1010.34
2018-12-12T08:51:54.899Z,1010.34
2018-12-12T08:52:54.891Z,1010.33
2018-12-12T08:53:54.870Z,1010.33
2018-12-12T08:54:54.843Z,1010.34
2018-12-12T08:55:54.835Z,1010.36
2018-12-12T08:56:54.842Z,1010.37
2018-12-12T08:57:54.823Z,1010.39
2018-12-12T08:58:54.812Z,1010.37
2018-12-12T08:59:54.787Z,1010.33
2018-12-12T09:00:54.776Z,1010.39
2018-12-12T09:01:54.783Z,1010.39
2018-12-12T09:02:54.815Z,1010.38
2018-12-12T09:03:54.748Z,1010.40
2018-12-12T09:04:54.740Z,1010.46
2018-12-12T09:05:54.729Z,1010.43
2018-12-12T09:06:54.743Z,1010.45
2018-12-12T09:07:54.703Z,1010.46
2018-12-12T09:08:54.691Z,1010.45
2018-12-12T09:09:54.709Z,1010.47
2018-12-12T09:10:54.671Z,1010.45
2018-12-12T09:11:54.680Z,1010.48
2018-12-12T09:12:54.654Z,1010.46
2018-12-12T09:13:54.636Z,1010.47
2018-12-12T09:14:54.635Z,1010.45
2018-12-12T09:15:54.630Z,1010.49
2018-12-12T09:16:54.633Z,1010.47
2018-12-12T09:17:54.599Z,1010.47
2018-12-12T09:18:54.596Z,1010.47
2018-12-12T09:19:54.572Z,1010.48
2018-12-12T09:20:54.562Z,1010.45
2018-12-12T09:21:54.568Z,1010.50
2018-12-12T09:22:54.539Z,1010.51
2018-12-12T09:23:54.541Z,1010.52
2018-12-12T09:24:54.525Z,1010.55
2018-12-12T09:25:54.504Z,1010.52
2018-12-12T09:26:54.517Z,1010.51
2018-12-12T09:27:54.492Z,1010.46
2018-12-12T09:28:54.477Z,1010.50
2018-12-12T09:29:54.467Z,1010.45
2018-12-12T09:30:54.461Z,1010.45
2018-12-12T09:31:54.461Z,1010.48
2018-12-12T09:32:54.428Z,1010.45
2018-12-12T09:33:54.420Z,1010.51
2018-12-12T09:34:54.410Z,1010.50
2018-12-12T09:35:54.412Z,1010.55
2018-12-12T09:36:54.435Z,1010.56
2018-12-12T09:37:54.392Z,1010.55
2018-12-12T09:38:54.367Z,1010.56
2018-12-12T09:39:54.356Z,1010.55
2018-12-12T09:40:54.340Z,1010.55
2018-12-12T09:41:54.360Z,1010.55
2018-12-12T09:42:54.323Z,1010.56
2018-12-12T09:43:54.319Z,1010.58
2018-12-12T09:44:54.298Z,1010.57
2018-12-12T09:45:54.287Z,1010.61
2018-12-12T09:46:54.299Z,1010.62
2018-12-12T09:47:54.297Z,1010.63
2018-12-12T09:48:54.262Z,1010.59
2018-12-12T09:49:54.252Z,1010.64
2018-12-12T09:50:54.271Z,1010.60
2018-12-12T09:51:54.258Z,1010.57
2018-12-12T09:52:54.224Z,1010.56
2018-12-12T09:53:54.229Z,1010.59
2018-12-12T09:54:54.193Z,1010.56
2018-12-12T09:55:54.182Z,1010.55
2018-12-12T09:56:54.176Z,1010.53
2018-12-12T09:57:54.163Z,1010.54
2018-12-12T09:58:54.149Z,1010.52
2018-12-12T09:59:54.161Z,1010.52
2018-12-12T10:00:54.136Z,1010.56
2018-12-12T10:01:54.122Z,1010.56
2018-12-12T10:02:54.128Z,1010.59
2018-12-12T10:03:54.100Z,1010.63
2018-12-12T10:04:54.086Z,1010.64
2018-12-12T10:05:54.077Z,1010.68
2018-12-12T10:06:54.083Z,1010.63
2018-12-12T10:07:54.054Z,1010.65
2018-12-12T10:08:54.049Z,1010.62
2018-12-12T10:09:54.037Z,1010.67
2018-12-12T10:10:54.025Z,1010.68
2018-12-12T10:11:54.036Z,1010.62
2018-12-12T10:12:54.002Z,1010.63
2018-12-12T10:13:53.999Z,1010.62
2018-12-12T10:14:53.982Z,1010.66
2018-12-12T10:15:53.969Z,1010.65
2018-12-12T10:16:53.973Z,1010.65
2018-12-12T10:17:53.945Z,1010.67
2018-12-12T10:18:53.943Z,1010.60
2018-12-12T10:19:53.929Z,1010.61
2018-12-12T10:20:53.931Z,1010.62
2018-12-12T10:21:53.929Z,1010.64
2018-12-12T10:22:53.896Z,1010.58
2018-12-12T10:23:53.887Z,1010.66
2018-12-12T10:24:53.874Z,1010.55
2018-12-12T10:25:53.865Z,1010.56
2018-12-12T10:26:53.868Z,1010.55
2018-12-12T10:27:53.843Z,1010.58
2018-12-12T10:28:53.836Z,1010.61
2018-12-12T10:29:53.818Z,1010.56
2018-12-12T10:30:53.813Z,1010.56
2018-12-12T10:31:53.830Z,1010.58
2018-12-12T10:32:53.791Z,1010.57
2018-12-12T10:33:53.797Z,1010.55
2018-12-12T10:34:53.772Z,1010.58
2018-12-12T10:35:53.754Z,1010.56
2018-12-12T10:36:53.742Z,1010.53
2018-12-12T10:37:53.749Z,1010.50
2018-12-12T10:38:53.724Z,1010.52
2018-12-12T10:39:53.721Z,1010.52
2018-12-12T10:40:53.706Z,1010.50
2018-12-12T10:41:53.694Z,1010.48
2018-12-12T10:42:53.709Z,1010.44
2018-12-12T10:43:53.675Z,1010.50
2018-12-12T10:44:53.657Z,1010.45
2018-12-12T10:45:53.653Z,1010.51
2018-12-12T10:46:53.640Z,1010.55
2018-12-12T10:47:53.645Z,1010.49
2018-12-12T10:48:53.615Z,1010.49
2018-12-12T10:49:53.612Z,1010.47
2018-12-12T10:50:53.595Z,1010.38
2018-12-12T10:51:53.618Z,1010.43
2018-12-12T10:52:53.603Z,1010.44
2018-12-12T10:53:54.461Z,1010.38
2018-12-12T10:54:53.553Z,1010.42
2018-12-12T10:55:53.543Z,1010.41
2018-12-12T10:56:53.530Z,1010.42
2018-12-12T10:57:53.519Z,1010.38
2018-12-12T10:58:53.534Z,1010.46
2018-12-12T10:59:53.504Z,1010.46
2018-12-12T11:00:53.494Z,1010.44
2018-12-12T11:01:53.477Z,1010.41
2018-12-12T11:02:53.477Z,1010.44
2018-12-12T11:03:53.458Z,1010.41
2018-12-12T11:04:53.480Z,1010.44
2018-12-12T11:05:53.440Z,1010.47
2018-12-12T11:06:53.425Z,1010.34
2018-12-12T11:07:53.413Z,1010.37
2018-12-12T11:08:53.410Z,1010.38
2018-12-12T11:09:53.409Z,1010.37
2018-12-12T11:10:53.400Z,1010.38
2018-12-12T11:11:53.372Z,1010.36
2018-12-12T11:12:53.442Z,1010.39
2018-12-12T11:13:53.371Z,1010.36
2018-12-12T11:14:53.343Z,1010.34
2018-12-12T11:15:53.327Z,1010.36
2018-12-12T11:16:53.356Z,1010.39
2018-12-12T11:17:53.311Z,1010.33
2018-12-12T11:18:53.339Z,1010.34
2018-12-12T11:19:53.291Z,1010.31
2018-12-12T11:20:53.271Z,1010.33
2018-12-12T11:21:53.311Z,1010.33
2018-12-12T11:22:53.252Z,1010.33
2018-12-12T11:23:53.267Z,1010.30
2018-12-12T11:24:53.238Z,1010.32
2018-12-12T11:25:53.224Z,1010.32
2018-12-12T11:26:53.226Z,1010.28
2018-12-12T11:27:53.199Z,1010.30
2018-12-12T11:28:53.187Z,1010.31
2018-12-12T11:29:53.192Z,1010.29
2018-12-12T11:30:53.176Z,1010.28
2018-12-12T11:31:53.161Z,1010.27
2018-12-12T11:32:53.150Z,1010.25
2018-12-12T11:33:53.132Z,1010.23
2018-12-12T11:34:53.143Z,1010.22
2018-12-12T11:35:53.118Z,1010.18
2018-12-12T11:36:53.147Z,1010.18
2018-12-12T11:37:53.096Z,1010.17
2018-12-12T11:38:53.131Z,1010.16
2018-12-12T11:39:53.071Z,1010.17
2018-12-12T11:40:53.056Z,1010.15
2018-12-12T11:41:53.046Z,1010.15
2018-12-12T11:42:53.041Z,1010.16
2018-12-12T11:43:53.049Z,1010.13
2018-12-12T11:44:53.020Z,1010.15
2018-12-12T11:45:53.010Z,1010.16
2018-12-12T11:46:52.996Z,1010.14
2018-12-12T11:47:52.984Z,1010.14
2018-12-12T11:48:52.988Z,1010.17
2018-12-12T11:49:52.970Z,1010.19
2018-12-12T11:50:52.957Z,1010.19
2018-12-12T11:51:52.940Z,1010.15
2018-12-12T11:52:52.927Z,1010.12
2018-12-12T11:53:52.935Z,1010.12
2018-12-12T11:54:52.917Z,1010.11
2018-12-12T11:55:52.901Z,1010.14
2018-12-12T11:56:52.904Z,1010.16
2018-12-12T11:57:52.874Z,1010.17
2018-12-12T11:58:52.884Z,1010.12
2018-12-12T11:59:52.857Z,1010.14
2018-12-12T12:00:52.848Z,1010.14
2018-12-12T12:01:52.841Z,1010.12
2018-12-12T12:02:52.826Z,1010.13
2018-12-12T12:03:56.789Z,1010.08
2018-12-12T12:04:52.800Z,1010.10